Time;durP1;ratioP1;P1;durP2;ratioP2;P2;SDS_P1;SDS_P2;PMS_P1;PMS_P2;Temp;Humidity;BMP_temperature;BMP_pressure;BME280_temperature;BME280_humidity;BME280_pressure;Samples;Min_cycle;Max_cycle;Signal;HPM_P1;HPM_P2
2021/05/10 00:02:07;;;;;;;16.87;8.50;;;;;;;11.18;52.30;98453.78;512633;1096;103540;-41
2021/05/10 00:12:13;;;;;;;20.43;10.17;;;;;;;11.01;52.65;98453.73;512549;1096;103164;-41
2021/05/10 00:22:17;;;;;;;17.57;8.87;;;;;;;10.90;53.05;98459.88;512623;1096;104446;-42
2021/05/10 00:32:23;;;;;;;17.43;8.30;;;;;;;10.79;52.82;98448.28;512585;1101;103256;-42
2021/05/10 00:42:35;;;;;;;15.87;9.00;;;;;;;10.71;53.42;98438.89;512548;1101;103541;-42
2021/05/10 00:52:40;;;;;;;17.27;9.17;;;;;;;10.65;53.64;98437.19;512578;1101;104590;-42
2021/05/10 01:02:45;;;;;;;22.13;9.80;;;;;;;10.71;53.87;98430.16;512709;1096;103282;-41
2021/05/10 01:12:49;;;;;;;17.10;8.43;;;;;;;10.80;53.84;98430.58;512501;1101;103160;-41
2021/05/10 01:22:56;;;;;;;16.70;8.45;;;;;;;10.80;54.00;98428.73;512514;1101;103220;-41
2021/05/10 01:33:01;;;;;;;16.35;7.85;;;;;;;10.73;53.84;98420.14;512636;1100;103214;-42
2021/05/10 01:43:06;;;;;;;16.37;8.93;;;;;;;10.67;54.11;98434.31;513520;1084;103187;-41
2021/05/10 01:53:11;;;;;;;17.03;7.77;;;;;;;10.63;54.54;98433.95;512726;1101;104525;-41
2021/05/10 02:03:18;;;;;;;14.20;7.60;;;;;;;10.62;54.51;98421.77;512614;1096;103167;-40
2021/05/10 02:13:23;;;;;;;9.70;6.10;;;;;;;10.52;54.45;98432.16;512660;1101;103169;-42
2021/05/10 02:23:30;;;;;;;13.60;6.50;;;;;;;10.45;54.50;98427.01;512539;1101;103536;-40
2021/05/10 02:33:35;;;;;;;11.00;6.23;;;;;;;10.38;54.75;98422.87;512492;1101;104587;-41
2021/05/10 02:43:39;;;;;;;11.37;7.20;;;;;;;10.35;54.79;98421.50;512652;1095;103666;-42
2021/05/10 02:53:43;;;;;;;13.00;6.43;;;;;;;10.34;54.78;98416.45;512520;1101;103441;-41
2021/05/10 03:03:47;;;;;;;11.05;6.15;;;;;;;10.39;54.93;98412.06;512493;1096;103165;-41
2021/05/10 03:13:51;;;;;;;12.63;6.50;;;;;;;10.45;54.85;98408.50;512525;1101;103167;-41
2021/05/10 03:23:55;;;;;;;11.80;5.80;;;;;;;10.52;54.72;98408.36;512595;1096;103454;-41
2021/05/10 03:34:00;;;;;;;35.33;7.33;;;;;;;10.54;54.73;98414.22;512560;1101;103167;-41
2021/05/10 03:44:05;;;;;;;9.10;5.83;;;;;;;10.76;54.54;98428.41;512588;1096;103189;-42
2021/05/10 03:54:09;;;;;;;8.40;5.50;;;;;;;13.40;53.09;98425.23;512684;1101;103282;-42
2021/05/10 04:04:20;;;;;;;8.80;4.70;;;;;;;15.60;51.39;98425.95;512760;1101;103161;-41
2021/05/10 04:14:25;;;;;;;12.07;6.43;;;;;;;17.60;49.15;98427.59;512797;1101;103198;-41
2021/05/10 04:24:30;;;;;;;10.03;6.70;;;;;;;19.04;47.89;98437.30;512657;1101;103132;-40
2021/05/10 04:34:34;;;;;;;14.07;8.93;;;;;;;19.68;45.83;98422.42;512764;1101;103166;-39
2021/05/10 04:44:38;;;;;;;14.37;7.93;;;;;;;19.99;43.87;98433.42;512576;1101;104514;-41
2021/05/10 04:54:43;;;;;;;11.23;8.03;;;;;;;20.38;42.83;98426.81;512507;1096;103203;-40
2021/05/10 05:15:07;;;;;;;11.57;5.83;;;;;;;20.48;40.07;98424.73;512416;1096;103233;-41
2021/05/10 05:25:13;;;;;;;10.03;5.23;;;;;;;20.78;39.60;98430.58;512707;1101;103550;-41
2021/05/10 05:35:17;;;;;;;6.07;4.10;;;;;;;21.55;38.68;98427.02;512728;1101;103531;-40
2021/05/10 05:45:25;;;;;;;9.70;4.27;;;;;;;21.78;37.74;98423.20;512698;1096;104590;-41
2021/05/10 05:55:31;;;;;;;7.23;3.33;;;;;;;22.21;34.78;98418.05;512419;1096;103233;-40
2021/05/10 06:05:35;;;;;;;9.27;3.27;;;;;;;22.29;33.68;98417.30;512575;1101;103505;-40
2021/05/10 06:15:40;;;;;;;3.67;1.97;;;;;;;22.46;31.38;98432.72;512579;1101;103492;-41
2021/05/10 06:25:44;;;;;;;3.13;1.70;;;;;;;22.52;29.75;98428.80;512751;1101;105006;-39
2021/05/10 06:35:52;;;;;;;7.15;2.25;;;;;;;22.71;30.42;98430.41;512531;1101;103241;-39
2021/05/10 06:45:55;;;;;;;3.83;2.07;;;;;;;23.02;29.69;98408.78;512795;1101;103170;-41
2021/05/10 06:56:00;;;;;;;5.83;2.20;;;;;;;23.22;30.40;98416.25;512557;1096;103563;-41
2021/05/10 07:06:04;;;;;;;4.20;2.20;;;;;;;23.07;27.84;98409.41;512739;1101;103572;-40
2021/05/10 07:16:11;;;;;;;4.70;1.53;;;;;;;23.13;29.13;98410.83;512544;1101;103522;-41
2021/05/10 07:26:16;;;;;;;6.83;1.65;;;;;;;23.94;29.12;98407.44;512621;1096;103473;-42
2021/05/10 07:36:20;;;;;;;2.20;0.70;;;;;;;23.97;27.38;98393.28;512664;1096;103173;-41
2021/05/10 07:56:42;;;;;;;5.93;1.03;;;;;;;23.71;25.60;98390.66;512804;1101;103164;-41
2021/05/10 08:06:47;;;;;;;4.85;1.60;;;;;;;24.14;25.47;98397.84;512775;1096;103604;-40
2021/05/10 08:16:52;;;;;;;3.20;1.07;;;;;;;24.48;25.55;98396.90;512486;1101;103113;-39
2021/05/10 08:26:57;;;;;;;2.97;1.27;;;;;;;24.59;26.21;98387.28;512575;1096;103535;-39
2021/05/10 08:37:01;;;;;;;4.67;1.57;;;;;;;24.43;25.28;98376.27;512538;1101;103173;-41
2021/05/10 08:47:05;;;;;;;4.87;1.13;;;;;;;24.65;24.41;98382.50;512460;1101;103492;-41
2021/05/10 08:57:10;;;;;;;5.13;1.20;;;;;;;24.63;25.01;98382.04;512554;1096;103189;-41
2021/05/10 09:07:14;;;;;;;4.90;1.00;;;;;;;24.95;24.75;98373.21;512608;1101;103463;-41
2021/05/10 09:17:17;;;;;;;10.13;1.53;;;;;;;25.21;24.27;98367.61;512497;1101;104519;-40
2021/05/10 09:37:40;;;;;;;2.00;1.17;;;;;;;25.23;22.96;98348.34;512592;1101;103170;-41
2021/05/10 09:47:44;;;;;;;2.63;0.93;;;;;;;25.34;24.82;98355.73;512572;1101;103247;-40
2021/05/10 09:57:55;;;;;;;4.27;1.43;;;;;;;25.77;25.42;98334.74;512674;1101;103454;-41
2021/05/10 10:08:03;;;;;;;9.47;1.20;;;;;;;25.68;24.08;98335.64;512429;1096;103170;-40
2021/05/10 10:18:08;;;;;;;2.10;1.40;;;;;;;25.88;23.71;98315.02;512792;1101;103543;-40
2021/05/10 10:28:14;;;;;;;1.67;1.00;;;;;;;25.63;24.30;98314.17;512554;1101;103215;-41
2021/05/10 10:38:25;;;;;;;6.73;2.00;;;;;;;26.34;25.60;98309.48;512611;1101;103218;-43
2021/05/10 10:48:31;;;;;;;6.25;2.05;;;;;;;26.10;24.66;98316.50;512513;1101;103187;-40
2021/05/10 10:58:39;;;;;;;9.73;1.45;;;;;;;26.59;25.63;98305.62;512736;1096;103165;-40
2021/05/10 11:19:31;;;;;;;8.07;1.60;;;;;;;26.66;24.37;98297.68;512573;1096;103170;-43
2021/05/10 11:29:51;;;;;;;5.80;1.23;;;;;;;26.83;23.48;98283.06;512892;1101;103241;-40
2021/05/10 11:39:57;;;;;;;6.50;1.63;;;;;;;26.90;23.05;98286.75;512491;1101;103175;-43
2021/05/10 11:50:03;;;;;;;5.08;2.20;;;;;;;26.79;23.05;98269.40;512711;1096;103165;-41
2021/05/10 12:10:30;;;;;;;4.43;1.50;;;;;;;26.86;22.06;98277.73;512584;1101;103216;-40
2021/05/10 12:20:35;;;;;;;1.83;1.10;;;;;;;27.15;23.10;98273.89;512638;1101;103188;-39
2021/05/10 12:41:21;;;;;;;6.47;0.90;;;;;;;27.14;23.41;98272.31;512565;1101;103578;-40
2021/05/10 12:51:28;;;;;;;6.30;1.00;;;;;;;26.78;23.40;98277.88;512620;1096;103241;-41
2021/05/10 13:01:32;;;;;;;0.87;0.87;;;;;;;26.83;23.57;98264.86;512753;1101;103470;-39
2021/05/10 13:11:44;;;;;;;6.90;0.80;;;;;;;26.78;23.17;98262.39;512501;1101;103174;-41
2021/05/10 13:32:18;;;;;;;5.73;1.07;;;;;;;27.06;22.18;98254.27;512558;1101;103170;-41
2021/05/10 13:42:30;;;;;;;4.00;0.77;;;;;;;27.47;22.16;98254.94;512559;1101;103259;-41
2021/05/10 13:52:34;;;;;;;2.93;1.17;;;;;;;27.56;19.89;98260.19;512741;1096;103183;-41
2021/05/10 14:02:38;;;;;;;2.87;0.77;;;;;;;27.55;21.08;98255.90;512382;1096;103164;-40
2021/05/10 14:12:44;;;;;;;1.10;0.83;;;;;;;27.18;21.60;98254.19;512506;1096;103134;-41
2021/05/10 14:22:48;;;;;;;6.17;1.07;;;;;;;26.93;21.66;98260.84;512748;1096;103175;-41
2021/05/10 14:32:53;;;;;;;10.10;2.97;;;;;;;26.80;21.68;98238.42;512662;1101;104629;-43
2021/05/10 14:42:58;;;;;;;4.67;0.97;;;;;;;26.95;21.29;98236.08;512545;1101;103189;-41
2021/05/10 14:53:02;;;;;;;4.87;1.90;;;;;;;27.06;21.51;98234.48;512595;1101;103165;-41
2021/05/10 15:03:06;;;;;;;1.80;1.10;;;;;;;27.11;21.87;98240.45;512718;1101;103170;-41
2021/05/10 15:13:10;;;;;;;3.87;1.20;;;;;;;27.14;21.97;98247.09;512598;1096;103192;-42
2021/05/10 15:23:15;;;;;;;5.70;1.23;;;;;;;27.10;20.79;98238.87;512521;1101;103622;-41
2021/05/10 15:33:45;;;;;;;5.20;1.10;;;;;;;26.88;21.08;98239.40;512693;1101;103454;-40
2021/05/10 15:43:50;;;;;;;0.83;0.70;;;;;;;26.79;21.02;98244.98;512738;1101;103495;-42
2021/05/10 15:53:54;;;;;;;8.83;1.80;;;;;;;26.49;22.08;98247.22;512922;1101;103205;-41
2021/05/10 16:03:59;;;;;;;35.85;2.30;;;;;;;26.11;22.34;98260.38;512590;1101;104403;-41
2021/05/10 16:14:04;;;;;;;4.77;1.30;;;;;;;25.95;22.95;98261.06;512605;1101;103471;-41
2021/05/10 16:24:10;;;;;;;5.07;2.23;;;;;;;25.77;22.76;98265.13;512503;1101;103167;-41
2021/05/10 16:34:15;;;;;;;3.60;1.80;;;;;;;25.66;23.28;98278.30;512663;1101;103190;-41
2021/05/10 16:44:19;;;;;;;7.47;2.23;;;;;;;25.40;24.02;98273.19;512492;1096;103170;-43
2021/05/10 16:54:24;;;;;;;4.67;2.20;;;;;;;25.29;24.71;98282.05;512613;1101;103192;-41
2021/05/10 17:04:30;;;;;;;2.87;2.20;;;;;;;25.11;24.64;98277.97;512832;1096;103231;-39
2021/05/10 17:14:34;;;;;;;3.23;1.87;;;;;;;24.87;24.27;98276.72;512564;1101;103195;-41
2021/05/10 17:24:39;;;;;;;3.80;1.65;;;;;;;24.68;24.65;98271.78;512566;1096;103624;-40
2021/05/10 17:34:43;;;;;;;5.97;1.73;;;;;;;24.43;25.27;98278.97;512614;1101;103264;-40
2021/05/10 17:44:48;;;;;;;4.27;2.27;;;;;;;24.14;25.97;98277.07;512636;1101;103170;-41
2021/05/10 17:54:52;;;;;;;4.75;2.40;;;;;;;23.76;26.33;98287.89;512554;1101;103487;-41
2021/05/10 18:04:56;;;;;;;7.40;4.13;;;;;;;23.25;27.41;98284.22;512409;1101;103173;-40
2021/05/10 18:25:20;;;;;;;13.95;5.50;;;;;;;21.95;29.04;98296.76;512320;1096;103547;-40
2021/05/10 18:35:24;;;;;;;23.73;7.23;;;;;;;21.13;30.83;98306.14;512723;1096;103470;-41
2021/05/10 18:45:30;;;;;;;19.05;6.95;;;;;;;20.35;31.80;98310.05;512299;1101;103167;-40
2021/05/10 18:55:35;;;;;;;36.23;10.73;;;;;;;19.60;33.50;98313.11;512373;1096;103171;-41
2021/05/10 19:05:40;;;;;;;23.07;10.87;;;;;;;19.09;34.62;98323.88;512578;1101;103220;-41
2021/05/10 19:15:45;;;;;;;37.13;13.50;;;;;;;18.60;35.56;98336.61;512462;1101;103121;-41
2021/05/10 19:25:53;;;;;;;31.57;16.60;;;;;;;18.34;36.23;98332.68;512606;1101;103117;-43
2021/05/10 19:35:57;;;;;;;34.60;15.33;;;;;;;17.87;37.12;98338.84;512388;1096;103568;-40
2021/05/10 19:46:03;;;;;;;31.50;16.20;;;;;;;17.73;37.84;98336.03;512845;1101;103189;-40
2021/05/10 20:06:34;;;;;;;50.13;23.87;;;;;;;17.30;38.86;98338.56;512562;1101;103570;-39
2021/05/10 20:16:38;;;;;;;46.97;18.87;;;;;;;17.03;39.65;98331.00;512639;1101;103192;-42
2021/05/10 20:26:42;;;;;;;29.20;14.03;;;;;;;16.81;40.17;98325.31;512617;1101;103207;-40
2021/05/10 20:36:47;;;;;;;25.35;13.85;;;;;;;16.67;40.68;98332.33;512407;1101;103173;-41
2021/05/10 20:46:53;;;;;;;30.10;13.97;;;;;;;16.64;41.06;98328.31;512322;1096;103575;-41
2021/05/10 20:56:59;;;;;;;31.13;15.87;;;;;;;16.40;41.71;98332.71;512592;1096;103170;-40
2021/05/10 21:07:03;;;;;;;27.60;14.25;;;;;;;16.28;42.20;98346.36;512509;1096;104514;-42
2021/05/10 21:17:07;;;;;;;28.75;15.40;;;;;;;16.07;42.68;98340.30;512443;1101;103550;-40
2021/05/10 21:27:12;;;;;;;29.33;16.20;;;;;;;16.00;43.59;98355.00;512552;1101;103170;-42
2021/05/10 21:37:16;;;;;;;37.30;19.23;;;;;;;16.22;43.76;98358.92;512524;1096;103173;-41
2021/05/10 21:47:20;;;;;;;28.30;16.40;;;;;;;15.82;44.21;98357.16;512586;1096;103193;-41
2021/05/10 21:57:23;;;;;;;37.07;19.03;;;;;;;15.25;45.21;98355.60;512470;1101;103195;-41
2021/05/10 22:07:28;;;;;;;31.80;17.33;;;;;;;15.26;45.99;98365.19;512468;1101;103190;-41
2021/05/10 22:17:32;;;;;;;34.07;15.70;;;;;;;14.93;46.34;98358.52;512659;1101;103477;-40
2021/05/10 23:19:19;;;;;;;27.50;13.53;;;;;;;14.60;48.58;98335.02;512614;1101;103208;-41
2021/05/10 23:29:23;;;;;;;25.83;13.07;;;;;;;14.88;48.78;98328.41;512497;1101;104570;-41
2021/05/10 23:39:27;;;;;;;19.57;11.50;;;;;;;15.03;48.60;98331.89;512570;1101;103639;-40
2021/05/10 23:49:31;;;;;;;18.60;11.97;;;;;;;14.99;48.72;98327.37;512541;1096;103205;-42
2021/05/10 23:59:36;;;;;;;25.30;12.90;;;;;;;14.79;48.85;98330.00;512651;1101;103223;-41
